Time;durP1;ratioP1;P1;durP2;ratioP2;P2;SDS_P1;SDS_P2;PMS_P1;PMS_P2;Temp;Humidity;BMP_temperature;BMP_pressure;BME280_temperature;BME280_humidity;BME280_pressure;Samples;Min_cycle;Max_cycle;Signal;HPM_P1;HPM_P2
2023/12/22 00:01:23;;;;;;;6.35;2.00;;;6.30;99.90;;;;;;4991699;28;20050;-81
2023/12/22 00:04:14;;;;;;;9.57;2.22;;;6.30;99.90;;;;;;4991141;28;20046;-84
2023/12/22 00:07:01;;;;;;;6.53;2.08;;;6.30;99.90;;;;;;4982467;28;20050;-87
2023/12/22 00:09:51;;;;;;;9.35;2.55;;;6.30;99.90;;;;;;4992608;28;20061;-85
2023/12/22 00:12:40;;;;;;;7.07;1.90;;;6.20;99.90;;;;;;4983354;28;20129;-79
2023/12/22 00:15:28;;;;;;;10.55;2.60;;;6.20;99.90;;;;;;4983729;28;20043;-84
2023/12/22 00:18:16;;;;;;;3.92;2.00;;;6.20;99.90;;;;;;4989374;28;20038;-85
2023/12/22 00:21:04;;;;;;;6.25;2.10;;;6.20;99.90;;;;;;4985260;28;20066;-84
2023/12/22 00:23:51;;;;;;;11.35;2.40;;;6.20;99.90;;;;;;4990795;28;20065;-86
2023/12/22 00:27:03;;;;;;;10.30;2.00;;;6.20;99.90;;;;;;4990342;28;20324;-85
2023/12/22 00:29:50;;;;;;;11.25;2.45;;;6.20;99.90;;;;;;4987902;28;20065;-86
2023/12/22 00:32:37;;;;;;;10.98;2.63;;;6.30;99.90;;;;;;4989162;28;20052;-86
2023/12/22 00:35:35;;;;;;;6.35;1.70;;;6.30;99.90;;;;;;4985277;28;20366;-86
2023/12/22 00:38:46;;;;;;;6.82;2.05;;;6.30;99.90;;;;;;4990851;28;20038;-84
2023/12/22 00:41:34;;;;;;;8.93;1.92;;;6.30;99.90;;;;;;4987352;28;20351;-85
2023/12/22 00:44:21;;;;;;;11.80;2.17;;;6.20;99.90;;;;;;4989603;28;20118;-86
2023/12/22 00:47:09;;;;;;;6.70;2.30;;;6.30;99.90;;;;;;4990219;28;20046;-86
2023/12/22 00:49:57;;;;;;;8.18;2.40;;;6.30;99.90;;;;;;4985297;28;20121;-86
2023/12/22 00:52:44;;;;;;;7.03;1.90;;;6.20;99.90;;;;;;4979250;28;20328;-85
2023/12/22 00:55:33;;;;;;;7.60;2.13;;;6.30;99.90;;;;;;4987133;28;20054;-83
2023/12/22 00:58:22;;;;;;;5.32;1.70;;;6.40;99.90;;;;;;4982759;28;20057;-82
2023/12/22 01:01:11;;;;;;;5.65;2.10;;;6.30;99.90;;;;;;4988601;28;20038;-85
2023/12/22 01:03:59;;;;;;;7.72;2.10;;;6.30;99.90;;;;;;4984200;28;20423;-86
2023/12/22 01:06:46;;;;;;;7.72;2.17;;;6.30;99.90;;;;;;4991100;28;20053;-83
2023/12/22 01:09:39;;;;;;;10.02;2.22;;;6.40;99.90;;;;;;4986236;28;20138;-82
2023/12/22 01:12:27;;;;;;;9.95;2.55;;;6.30;99.90;;;;;;4989995;28;20422;-84
2023/12/22 01:15:14;;;;;;;10.75;2.20;;;6.30;99.90;;;;;;4983168;28;20064;-84
2023/12/22 01:18:06;;;;;;;8.48;2.20;;;6.20;99.90;;;;;;4992356;28;20454;-84
2023/12/22 01:20:56;;;;;;;3.83;1.63;;;6.20;99.90;;;;;;4982760;28;20410;-83
2023/12/22 01:23:44;;;;;;;8.95;1.90;;;6.20;99.90;;;;;;4979247;28;20050;-84
2023/12/22 01:26:34;;;;;;;9.57;1.85;;;6.20;99.90;;;;;;4987396;28;20089;-84
2023/12/22 01:29:22;;;;;;;6.38;1.55;;;6.30;99.90;;;;;;4989422;28;20042;-84
2023/12/22 01:32:11;;;;;;;3.90;1.48;;;6.30;99.90;;;;;;4983442;28;20051;-83
2023/12/22 01:35:03;;;;;;;5.90;1.52;;;6.30;99.90;;;;;;4990314;28;20049;-85
2023/12/22 01:37:51;;;;;;;4.95;1.60;;;6.30;99.90;;;;;;4982026;28;20053;-85
2023/12/22 01:40:40;;;;;;;1.85;0.90;;;6.30;99.90;;;;;;4979831;28;20057;-85
2023/12/22 01:43:28;;;;;;;2.40;1.10;;;6.20;99.90;;;;;;4988524;28;20053;-85
2023/12/22 01:46:15;;;;;;;2.33;1.00;;;6.20;99.90;;;;;;4979956;28;20058;-85
2023/12/22 01:49:02;;;;;;;4.03;1.38;;;6.10;99.90;;;;;;4988755;28;20050;-80
2023/12/22 01:51:50;;;;;;;2.33;1.10;;;6.10;99.90;;;;;;4985717;28;20043;-79
2023/12/22 01:54:37;;;;;;;5.78;1.23;;;6.00;99.90;;;;;;4991075;28;20351;-85
2023/12/22 01:57:25;;;;;;;1.92;1.67;;;6.10;99.90;;;;;;4979919;28;20042;-85
2023/12/22 02:00:13;;;;;;;2.53;1.40;;;6.10;99.90;;;;;;4993217;28;20044;-79
2023/12/22 02:03:00;;;;;;;1.83;0.98;;;6.00;99.90;;;;;;4991089;28;20042;-83
2023/12/22 02:05:47;;;;;;;4.40;1.10;;;6.10;99.90;;;;;;4985093;28;20415;-85
2023/12/22 02:08:36;;;;;;;3.35;1.20;;;6.10;99.90;;;;;;4978882;28;20050;-85
2023/12/22 02:11:24;;;;;;;3.17;1.20;;;6.10;99.90;;;;;;4989179;28;20125;-87
2023/12/22 02:14:11;;;;;;;1.65;1.00;;;6.10;99.90;;;;;;4984519;28;20061;-87
2023/12/22 02:17:22;;;;;;;5.45;1.35;;;6.10;99.90;;;;;;4990153;28;20054;-84
2023/12/22 02:20:11;;;;;;;4.50;1.42;;;6.20;99.90;;;;;;4990468;28;20082;-85
2023/12/22 02:22:58;;;;;;;3.22;1.30;;;6.20;99.90;;;;;;4994053;28;20058;-84
2023/12/22 02:25:46;;;;;;;4.28;1.50;;;6.20;99.90;;;;;;4986133;28;20129;-84
2023/12/22 02:28:37;;;;;;;4.28;1.40;;;6.20;99.90;;;;;;4986836;28;20054;-84
2023/12/22 02:31:37;;;;;;;8.65;1.77;;;6.10;99.90;;;;;;4990553;28;20057;-85
2023/12/22 02:34:25;;;;;;;9.45;1.70;;;6.10;99.90;;;;;;4983555;28;20035;-84
2023/12/22 02:37:14;;;;;;;7.80;1.70;;;6.10;99.90;;;;;;4991202;28;20081;-85
2023/12/22 02:40:05;;;;;;;5.15;1.63;;;6.20;99.90;;;;;;4987764;28;20567;-84
2023/12/22 02:42:53;;;;;;;9.55;2.00;;;6.20;99.90;;;;;;4990484;28;20125;-84
2023/12/22 02:45:40;;;;;;;3.33;1.60;;;6.30;99.90;;;;;;4989913;28;20050;-80
2023/12/22 02:48:28;;;;;;;4.88;1.60;;;6.30;99.90;;;;;;4990620;28;20038;-85
2023/12/22 02:51:16;;;;;;;10.52;1.95;;;6.30;99.90;;;;;;4994885;28;20132;-83
2023/12/22 02:54:03;;;;;;;6.65;2.28;;;6.40;99.90;;;;;;4994479;28;20061;-85
2023/12/22 02:56:54;;;;;;;6.70;1.58;;;6.50;99.90;;;;;;4984108;28;20038;-83
2023/12/22 02:59:44;;;;;;;8.05;1.75;;;6.40;99.90;;;;;;4998813;28;20366;-84
2023/12/22 03:02:32;;;;;;;9.10;1.73;;;6.40;99.90;;;;;;5003368;28;20086;-87
2023/12/22 03:05:22;;;;;;;9.60;2.08;;;6.50;99.90;;;;;;5001865;28;20077;-83
2023/12/22 03:08:09;;;;;;;6.18;1.88;;;6.50;99.90;;;;;;4996676;28;20046;-84
2023/12/22 03:10:57;;;;;;;6.63;1.45;;;6.50;99.90;;;;;;5005554;28;20056;-86
2023/12/22 03:13:53;;;;;;;5.85;1.50;;;6.40;99.90;;;;;;4991214;28;20051;-84
2023/12/22 03:16:41;;;;;;;5.82;1.73;;;6.40;99.90;;;;;;4991923;28;20156;-88
2023/12/22 03:19:29;;;;;;;10.30;2.47;;;6.40;99.90;;;;;;4995654;28;20056;-83
2023/12/22 03:22:17;;;;;;;5.88;1.70;;;6.50;99.90;;;;;;4992124;28;20504;-86
2023/12/22 03:25:07;;;;;;;4.22;1.60;;;6.40;99.90;;;;;;4985107;28;20093;-84
2023/12/22 03:27:56;;;;;;;7.03;1.85;;;6.40;99.90;;;;;;4992317;28;20051;-83
2023/12/22 03:30:43;;;;;;;5.53;1.83;;;6.40;99.90;;;;;;4988399;28;20058;-85
2023/12/22 03:33:33;;;;;;;4.25;1.15;;;6.40;99.90;;;;;;4987059;28;20065;-86
2023/12/22 03:36:21;;;;;;;4.55;1.40;;;6.40;99.90;;;;;;4989686;28;20074;-81
2023/12/22 03:39:10;;;;;;;4.13;1.40;;;6.50;99.90;;;;;;4989361;28;20086;-87
2023/12/22 03:41:59;;;;;;;5.30;2.08;;;6.50;99.90;;;;;;4988061;28;20387;-85
2023/12/22 03:44:46;;;;;;;6.20;1.80;;;6.50;99.90;;;;;;4985140;28;20416;-85
2023/12/22 03:47:35;;;;;;;10.43;1.80;;;6.50;99.90;;;;;;4989494;28;20046;-83
2023/12/22 03:50:22;;;;;;;5.53;1.60;;;6.50;99.90;;;;;;4990728;28;20148;-84
2023/12/22 03:53:09;;;;;;;5.88;2.08;;;6.50;99.90;;;;;;4987001;28;20121;-84
2023/12/22 03:55:59;;;;;;;5.65;1.98;;;6.50;99.90;;;;;;4983985;28;20120;-85
2023/12/22 03:58:46;;;;;;;5.47;1.77;;;6.40;99.90;;;;;;4987724;28;20129;-84
2023/12/22 04:01:35;;;;;;;8.57;2.25;;;6.40;99.90;;;;;;4987744;28;20042;-84
2023/12/22 04:04:23;;;;;;;7.85;2.00;;;6.40;99.90;;;;;;4984982;28;20053;-82
2023/12/22 04:07:10;;;;;;;11.13;2.40;;;6.30;99.90;;;;;;4988262;28;20042;-83
2023/12/22 04:09:57;;;;;;;4.75;1.77;;;6.40;99.90;;;;;;4993832;28;20046;-84
2023/12/22 04:12:45;;;;;;;13.93;2.40;;;6.40;99.90;;;;;;4984644;28;20611;-83
2023/12/22 04:15:32;;;;;;;10.32;1.95;;;6.40;99.90;;;;;;4983535;28;20054;-82
2023/12/22 04:18:19;;;;;;;11.48;2.10;;;6.50;99.90;;;;;;4990592;28;20047;-86
2023/12/22 04:21:08;;;;;;;10.68;2.75;;;6.50;99.90;;;;;;4982301;28;20327;-86
2023/12/22 04:23:56;;;;;;;7.97;2.08;;;6.50;99.90;;;;;;4984006;28;20050;-86
2023/12/22 04:26:43;;;;;;;12.20;2.05;;;6.40;99.90;;;;;;4989306;28;20050;-86
2023/12/22 04:29:30;;;;;;;19.70;2.75;;;6.40;99.90;;;;;;4988044;28;20078;-85
2023/12/22 04:32:18;;;;;;;13.48;2.50;;;6.30;99.90;;;;;;4983518;28;20088;-86
2023/12/22 04:35:05;;;;;;;10.45;2.47;;;6.20;99.90;;;;;;4982132;28;20057;-88
2023/12/22 04:37:52;;;;;;;9.70;2.05;;;6.00;99.90;;;;;;4984365;28;20057;-86
2023/12/22 04:40:40;;;;;;;9.73;2.00;;;5.90;99.90;;;;;;4988665;28;20057;-87
2023/12/22 04:43:28;;;;;;;8.65;1.90;;;5.80;99.90;;;;;;4986359;28;20275;-86
2023/12/22 04:46:19;;;;;;;7.05;2.25;;;5.60;99.90;;;;;;4985046;28;20386;-86
2023/12/22 04:49:06;;;;;;;6.70;2.10;;;5.50;99.90;;;;;;4989017;28;20522;-87
2023/12/22 04:51:54;;;;;;;4.32;1.90;;;5.50;99.90;;;;;;4990920;28;20092;-86
2023/12/22 04:54:48;;;;;;;10.93;2.63;;;5.60;99.90;;;;;;4991911;28;20046;-86
2023/12/22 04:57:38;;;;;;;8.45;1.80;;;5.60;99.90;;;;;;4984021;28;20073;-85
2023/12/22 05:00:26;;;;;;;10.88;1.92;;;5.60;99.90;;;;;;4982355;28;20062;-86
2023/12/22 05:03:16;;;;;;;13.25;2.53;;;5.50;99.90;;;;;;4987418;28;20046;-82
2023/12/22 05:06:06;;;;;;;9.32;2.25;;;5.50;99.90;;;;;;4988757;28;20359;-87
2023/12/22 05:08:53;;;;;;;10.57;2.40;;;5.50;99.90;;;;;;4991528;28;20571;-85
2023/12/22 05:11:48;;;;;;;11.07;2.55;;;5.50;99.90;;;;;;4991807;28;20050;-84
2023/12/22 05:14:35;;;;;;;9.45;2.38;;;5.60;99.90;;;;;;4982472;28;20043;-87
2023/12/22 05:17:25;;;;;;;10.85;2.65;;;5.60;99.90;;;;;;4992271;28;20046;-85
2023/12/22 05:20:12;;;;;;;10.18;3.08;;;5.70;99.90;;;;;;4983988;28;20076;-85
2023/12/22 05:22:59;;;;;;;11.38;2.58;;;5.80;99.90;;;;;;4981860;28;20050;-83
2023/12/22 05:25:47;;;;;;;11.02;3.35;;;5.70;99.90;;;;;;4978543;28;20047;-84
2023/12/22 05:28:36;;;;;;;12.77;2.90;;;5.90;99.90;;;;;;4991718;28;20470;-84
2023/12/22 05:31:27;;;;;;;8.65;2.45;;;5.90;99.90;;;;;;4991157;28;20051;-84
2023/12/22 05:34:15;;;;;;;14.23;3.10;;;5.90;99.90;;;;;;4990639;28;20042;-83
2023/12/22 05:37:05;;;;;;;14.80;3.05;;;5.90;99.90;;;;;;4989258;28;20043;-84
2023/12/22 05:39:53;;;;;;;10.90;2.85;;;6.00;99.90;;;;;;4988291;28;20043;-83
2023/12/22 05:42:40;;;;;;;12.93;2.63;;;6.00;99.90;;;;;;4994203;28;20054;-79
2023/12/22 05:45:28;;;;;;;15.90;3.03;;;6.10;99.90;;;;;;4992959;28;20433;-85
2023/12/22 05:48:16;;;;;;;9.95;2.45;;;6.10;99.90;;;;;;4992586;28;20301;-86
2023/12/22 05:51:07;;;;;;;11.85;3.00;;;6.20;99.90;;;;;;4995400;28;20078;-82
2023/12/22 05:53:54;;;;;;;16.48;3.00;;;6.30;99.90;;;;;;4983960;28;20415;-84
2023/12/22 05:56:51;;;;;;;12.68;2.83;;;6.30;99.90;;;;;;4984822;28;20046;-85
2023/12/22 05:59:44;;;;;;;10.80;2.80;;;6.30;99.90;;;;;;4983859;28;20039;-85
2023/12/22 06:02:31;;;;;;;11.82;2.75;;;6.20;99.90;;;;;;4986352;28;20753;-85
2023/12/22 06:05:19;;;;;;;20.10;3.40;;;6.10;99.90;;;;;;4979174;28;20049;-88
2023/12/22 06:08:07;;;;;;;14.38;3.63;;;5.90;99.90;;;;;;4993709;28;20132;-89
2023/12/22 06:10:55;;;;;;;14.20;3.53;;;5.70;99.90;;;;;;4988914;28;20053;-84
2023/12/22 06:13:42;;;;;;;15.30;3.40;;;5.60;99.90;;;;;;4990540;28;20053;-86
2023/12/22 06:16:29;;;;;;;18.38;3.40;;;5.50;99.90;;;;;;4989770;28;20065;-84
2023/12/22 06:19:44;;;;;;;24.08;3.75;;;5.40;99.90;;;;;;4986673;28;20074;-84
2023/12/22 06:22:35;;;;;;;21.38;3.72;;;5.40;99.90;;;;;;4988753;28;20193;-82
2023/12/22 06:26:08;;;;;;;;;;;;;;;;;;;;;
2023/12/22 06:41:30;;;;;;;19.20;3.55;;;5.50;99.90;;;;;;4963846;28;20336;-85
2023/12/22 06:44:20;;;;;;;15.93;3.50;;;5.50;99.90;;;;;;4970094;28;20069;-84
2023/12/22 06:47:08;;;;;;;12.68;3.05;;;5.50;99.90;;;;;;4991262;28;20053;-83
2023/12/22 07:01:46;;;;;;;20.02;5.82;;;5.30;99.90;;;;;;4989825;28;20053;-83
2023/12/22 07:05:23;;;;;;;23.92;5.43;;;5.30;99.90;;;;;;4993961;28;20116;-83
2023/12/22 07:08:10;;;;;;;13.45;3.80;;;5.40;99.90;;;;;;4989734;28;20096;-83
2023/12/22 07:10:59;;;;;;;15.85;3.50;;;5.40;99.90;;;;;;4993465;28;20042;-84
2023/12/22 07:13:46;;;;;;;14.93;3.13;;;5.40;99.90;;;;;;4993795;28;20046;-83
2023/12/22 07:16:35;;;;;;;17.70;3.65;;;5.40;99.90;;;;;;4996387;28;20204;-83
2023/12/22 07:19:30;;;;;;;11.60;3.67;;;5.40;99.90;;;;;;4989118;28;20126;-82
2023/12/22 07:22:17;;;;;;;17.67;3.50;;;5.40;99.90;;;;;;5017732;28;20192;-84
2023/12/22 07:25:08;;;;;;;14.18;2.83;;;5.40;99.90;;;;;;4995437;28;20090;-83
2023/12/22 07:27:55;;;;;;;19.20;3.20;;;5.40;99.90;;;;;;5009094;28;20053;-84
2023/12/22 07:30:45;;;;;;;14.70;3.30;;;5.50;99.90;;;;;;4994940;28;20048;-81
2023/12/22 07:33:37;;;;;;;12.48;3.15;;;5.40;99.90;;;;;;4994051;28;20054;-81
2023/12/22 07:36:28;;;;;;;14.77;3.05;;;5.40;99.90;;;;;;4996251;28;20049;-83
2023/12/22 07:39:15;;;;;;;13.30;2.80;;;5.40;99.90;;;;;;4989606;28;20144;-86
2023/12/22 07:42:05;;;;;;;15.25;3.20;;;5.40;99.90;;;;;;4989990;28;20109;-83
2023/12/22 07:44:55;;;;;;;16.58;3.40;;;5.40;99.90;;;;;;4996636;28;20608;-84
2023/12/22 07:47:46;;;;;;;17.42;3.15;;;5.30;99.90;;;;;;4997179;28;20042;-84
2023/12/22 07:50:36;;;;;;;21.92;3.10;;;5.30;99.90;;;;;;4989180;28;20136;-84
2023/12/22 07:53:26;;;;;;;18.83;3.85;;;5.30;99.90;;;;;;4992642;28;20129;-85
2023/12/22 07:56:14;;;;;;;13.80;3.47;;;5.30;99.90;;;;;;4990140;28;20121;-85
2023/12/22 08:02:56;;;;;;;12.70;2.92;;;5.30;99.90;;;;;;4992514;28;20456;-87
2023/12/22 08:05:45;;;;;;;16.00;3.55;;;5.40;99.90;;;;;;5008164;28;20063;-86
2023/12/22 08:08:37;;;;;;;11.88;2.70;;;5.60;99.90;;;;;;4996178;28;20042;-86
2023/12/22 08:11:28;;;;;;;18.38;3.33;;;5.70;99.90;;;;;;4999246;28;20042;-88
2023/12/22 08:14:24;;;;;;;19.55;3.65;;;5.90;99.90;;;;;;4994639;28;20038;-88
2023/12/22 08:17:14;;;;;;;19.42;3.92;;;5.90;99.90;;;;;;4996684;28;20038;-86
2023/12/22 08:20:08;;;;;;;23.48;4.57;;;5.90;99.90;;;;;;4995887;28;20052;-85
2023/12/22 08:23:06;;;;;;;16.38;3.25;;;5.90;99.90;;;;;;4994128;28;20082;-85
2023/12/22 08:26:00;;;;;;;16.92;3.30;;;5.90;99.90;;;;;;4994746;28;20053;-86
2023/12/22 08:28:52;;;;;;;15.85;3.80;;;6.10;99.90;;;;;;4992256;28;20125;-84
2023/12/22 08:31:39;;;;;;;15.55;3.33;;;6.20;99.90;;;;;;4991889;28;20042;-87
2023/12/22 08:34:27;;;;;;;15.32;3.28;;;6.20;99.90;;;;;;5004917;28;20366;-85
2023/12/22 08:37:18;;;;;;;19.17;3.22;;;6.20;99.90;;;;;;4992810;28;20042;-86
2023/12/22 08:40:09;;;;;;;16.17;4.10;;;6.20;99.90;;;;;;4982308;28;20117;-85
2023/12/22 08:42:59;;;;;;;13.70;3.60;;;6.30;99.90;;;;;;4994318;28;20046;-84
2023/12/22 08:45:50;;;;;;;16.95;3.60;;;6.20;99.90;;;;;;5009035;28;20191;-84
2023/12/22 08:48:39;;;;;;;18.60;3.72;;;6.10;99.90;;;;;;4987314;28;20057;-84
2023/12/22 08:51:28;;;;;;;22.80;5.35;;;6.10;99.90;;;;;;4994592;28;20089;-82
2023/12/22 08:54:16;;;;;;;15.48;3.20;;;6.10;99.90;;;;;;4993443;28;20053;-86
2023/12/22 08:57:05;;;;;;;16.83;4.10;;;6.10;99.90;;;;;;4997180;28;20046;-81
2023/12/22 08:59:55;;;;;;;15.05;3.13;;;6.10;99.90;;;;;;5003660;28;20385;-84
2023/12/22 09:02:44;;;;;;;14.75;3.63;;;6.10;99.90;;;;;;5016523;28;20126;-87
2023/12/22 09:05:35;;;;;;;15.02;3.30;;;6.20;99.90;;;;;;4991760;28;20053;-84
2023/12/22 09:08:23;;;;;;;17.08;3.72;;;6.20;99.90;;;;;;4991545;28;20129;-85
2023/12/22 09:11:16;;;;;;;19.17;4.03;;;6.30;99.90;;;;;;5003394;28;20049;-83
2023/12/22 09:14:09;;;;;;;21.50;4.25;;;6.30;99.90;;;;;;4990200;28;20125;-84
2023/12/22 09:17:04;;;;;;;18.23;3.65;;;6.30;99.90;;;;;;4987016;28;20046;-85
2023/12/22 09:20:02;;;;;;;18.40;3.67;;;6.30;99.90;;;;;;4986547;28;20046;-85
2023/12/22 09:22:49;;;;;;;16.52;3.80;;;6.30;99.90;;;;;;4987870;28;20300;-86
2023/12/22 09:25:45;;;;;;;14.05;2.80;;;6.40;99.90;;;;;;4990734;28;20057;-86
2023/12/22 09:28:35;;;;;;;11.93;3.45;;;6.30;99.90;;;;;;4979675;28;20132;-86
2023/12/22 09:31:22;;;;;;;17.60;3.70;;;6.30;99.90;;;;;;4989700;28;20070;-85
2023/12/22 09:34:10;;;;;;;20.83;3.97;;;6.30;99.90;;;;;;4988523;28;20038;-87
2023/12/22 09:37:05;;;;;;;15.35;3.70;;;6.40;99.90;;;;;;4994678;28;20042;-80
2023/12/22 09:39:52;;;;;;;16.08;3.60;;;6.30;99.90;;;;;;4994218;28;20052;-81
2023/12/22 09:42:43;;;;;;;18.92;3.80;;;6.40;99.90;;;;;;4990950;28;20042;-85
2023/12/22 09:45:33;;;;;;;15.65;3.70;;;6.40;99.90;;;;;;4995497;28;20074;-85
2023/12/22 09:48:27;;;;;;;13.40;3.13;;;6.50;99.90;;;;;;4992038;28;20435;-81
2023/12/22 09:51:18;;;;;;;12.30;3.80;;;6.50;99.90;;;;;;4995159;28;20454;-85
2023/12/22 09:54:09;;;;;;;12.18;2.90;;;6.50;99.90;;;;;;4986826;28;20050;-85
2023/12/22 09:57:00;;;;;;;17.20;4.07;;;6.60;99.90;;;;;;4986555;28;20336;-88
2023/12/22 10:00:09;;;;;;;16.08;3.47;;;6.60;99.90;;;;;;5008669;28;20370;-83
2023/12/22 10:02:57;;;;;;;15.30;4.03;;;6.60;99.90;;;;;;4989405;28;20045;-84
2023/12/22 10:05:49;;;;;;;19.73;3.65;;;6.60;99.90;;;;;;4993927;28;20490;-85
2023/12/22 10:08:39;;;;;;;20.80;4.78;;;6.60;99.90;;;;;;4993091;28;20051;-85
2023/12/22 10:11:30;;;;;;;20.85;3.60;;;6.60;99.90;;;;;;4990173;28;20038;-84
2023/12/22 10:14:27;;;;;;;21.50;4.07;;;6.60;99.90;;;;;;4985069;28;20066;-85
2023/12/22 10:17:16;;;;;;;16.67;3.65;;;6.70;99.90;;;;;;4993881;28;20454;-86
2023/12/22 10:20:08;;;;;;;24.38;4.18;;;6.70;99.90;;;;;;5002530;28;20569;-85
2023/12/22 10:22:58;;;;;;;27.40;4.95;;;6.70;99.90;;;;;;4994367;28;20070;-85
2023/12/22 10:25:51;;;;;;;21.73;4.60;;;6.70;99.90;;;;;;4993903;28;20035;-84
2023/12/22 10:28:41;;;;;;;21.38;4.15;;;6.70;99.90;;;;;;4993491;28;20125;-85
2023/12/22 10:31:42;;;;;;;18.92;4.10;;;6.80;99.90;;;;;;4999967;28;20050;-89
2023/12/22 10:34:33;;;;;;;22.88;3.80;;;6.80;99.90;;;;;;5009841;28;20071;-85
2023/12/22 10:37:26;;;;;;;19.65;3.95;;;6.80;99.90;;;;;;4997612;28;20046;-87
2023/12/22 10:40:13;;;;;;;14.75;3.85;;;6.80;99.90;;;;;;5006876;28;20062;-85
2023/12/22 10:43:00;;;;;;;19.98;3.85;;;6.70;99.90;;;;;;4996955;28;20046;-81
2023/12/22 10:45:50;;;;;;;22.63;3.97;;;6.70;99.90;;;;;;4997758;28;20043;-84
2023/12/22 10:48:40;;;;;;;17.90;3.08;;;6.60;99.90;;;;;;4994462;28;20095;-86
2023/12/22 10:51:32;;;;;;;14.20;3.08;;;6.50;99.90;;;;;;5009884;28;20133;-78
2023/12/22 10:54:22;;;;;;;14.50;3.40;;;6.50;99.90;;;;;;4991361;28;20134;-80
2023/12/22 10:57:16;;;;;;;11.07;3.60;;;6.40;99.90;;;;;;5000346;28;20039;-86
2023/12/22 11:00:07;;;;;;;8.23;2.55;;;6.30;99.90;;;;;;5006722;28;20038;-84
2023/12/22 11:03:03;;;;;;;14.00;2.72;;;6.30;99.90;;;;;;5000035;28;20395;-84
2023/12/22 11:05:54;;;;;;;12.50;2.90;;;6.30;99.90;;;;;;4991684;28;20046;-84
2023/12/22 11:08:45;;;;;;;16.70;3.13;;;6.20;99.90;;;;;;4999953;28;20061;-84
2023/12/22 11:11:35;;;;;;;9.73;2.50;;;6.20;99.90;;;;;;4994741;28;20042;-85
2023/12/22 11:14:26;;;;;;;11.73;2.47;;;6.10;99.90;;;;;;4990593;28;20043;-82
2023/12/22 11:17:14;;;;;;;8.95;2.30;;;6.10;99.90;;;;;;4995764;28;20134;-84
2023/12/22 11:20:04;;;;;;;11.07;3.63;;;6.10;99.90;;;;;;4987418;28;20057;-85
2023/12/22 11:22:55;;;;;;;7.00;2.38;;;6.00;99.90;;;;;;4992489;28;20125;-83
2023/12/22 11:25:49;;;;;;;5.70;2.20;;;6.00;99.90;;;;;;4982928;28;20066;-85
2023/12/22 11:28:41;;;;;;;10.18;2.28;;;6.00;99.90;;;;;;4993090;28;20046;-84
2023/12/22 11:31:33;;;;;;;11.50;2.78;;;5.90;99.90;;;;;;4995264;28;20050;-83
2023/12/22 11:34:24;;;;;;;7.63;2.50;;;5.90;99.90;;;;;;4993742;28;20053;-85
2023/12/22 11:37:17;;;;;;;9.32;2.10;;;5.90;99.90;;;;;;5006857;28;20091;-85
2023/12/22 11:40:10;;;;;;;13.32;3.10;;;5.90;99.90;;;;;;4984194;28;20633;-85
2023/12/22 11:43:03;;;;;;;12.60;2.75;;;5.90;99.90;;;;;;4981535;28;20067;-84
2023/12/22 11:45:51;;;;;;;9.93;2.28;;;5.90;99.90;;;;;;5011919;28;20097;-81
2023/12/22 11:48:55;;;;;;;7.35;2.10;;;5.90;99.90;;;;;;4992446;28;20145;-85
2023/12/22 11:51:50;;;;;;;9.38;2.60;;;5.90;99.90;;;;;;5005299;28;20525;-85
2023/12/22 11:54:51;;;;;;;8.57;2.08;;;5.80;99.90;;;;;;5003374;28;20057;-80
2023/12/22 11:57:40;;;;;;;10.40;2.45;;;5.90;99.90;;;;;;4988832;28;20470;-83
2023/12/22 12:00:28;;;;;;;4.80;2.05;;;5.90;99.90;;;;;;4993776;28;20042;-87
2023/12/22 12:03:17;;;;;;;10.38;2.47;;;5.90;99.90;;;;;;5009810;28;20077;-85
2023/12/22 12:06:13;;;;;;;4.55;1.88;;;5.90;99.90;;;;;;4991852;28;20042;-87
2023/12/22 12:09:04;;;;;;;12.07;2.10;;;5.90;99.90;;;;;;4992731;28;20382;-86
2023/12/22 12:11:51;;;;;;;7.10;2.17;;;5.90;99.90;;;;;;4993823;28;20050;-86
2023/12/22 12:14:43;;;;;;;4.38;1.40;;;5.90;99.90;;;;;;4988321;28;20486;-87
2023/12/22 12:17:32;;;;;;;5.93;2.08;;;5.90;99.90;;;;;;4991948;28;20078;-86
2023/12/22 12:20:21;;;;;;;4.10;1.50;;;5.80;99.90;;;;;;4992710;28;20053;-84
2023/12/22 12:23:12;;;;;;;6.55;1.67;;;5.80;99.90;;;;;;4988394;28;20139;-86
2023/12/22 12:26:00;;;;;;;3.67;1.65;;;5.80;99.90;;;;;;4992622;28;20057;-86
2023/12/22 12:28:48;;;;;;;4.25;2.20;;;5.80;99.90;;;;;;4983527;28;20474;-85
2023/12/22 12:31:37;;;;;;;3.47;1.70;;;5.90;99.90;;;;;;4995331;28;20173;-86
2023/12/22 12:34:25;;;;;;;3.65;1.85;;;5.90;99.90;;;;;;4996603;28;20103;-86
2023/12/22 12:37:19;;;;;;;6.15;1.75;;;5.90;99.90;;;;;;4992222;28;20115;-85
2023/12/22 12:40:08;;;;;;;14.23;3.72;;;6.00;99.90;;;;;;4994255;28;20078;-83
2023/12/22 12:43:01;;;;;;;22.65;5.57;;;6.00;99.90;;;;;;4994241;28;20121;-86
2023/12/22 12:45:48;;;;;;;6.03;2.05;;;6.10;99.90;;;;;;4992977;28;20069;-81
2023/12/22 12:48:36;;;;;;;2.70;1.10;;;6.20;99.90;;;;;;5005707;28;20356;-83
2023/12/22 12:51:24;;;;;;;3.55;1.40;;;6.30;99.90;;;;;;4999870;28;20042;-87
2023/12/22 12:54:15;;;;;;;1.23;0.90;;;6.40;99.90;;;;;;4981346;28;20430;-87
2023/12/22 12:57:03;;;;;;;3.45;0.95;;;6.40;99.90;;;;;;5008728;28;20038;-87
2023/12/22 12:59:55;;;;;;;1.45;1.15;;;6.50;99.90;;;;;;4999498;28;20436;-85
2023/12/22 13:02:44;;;;;;;1.98;0.90;;;6.50;99.90;;;;;;4991057;28;20092;-87
2023/12/22 13:05:34;;;;;;;3.00;0.80;;;6.60;99.90;;;;;;4996051;28;20050;-87
2023/12/22 13:08:26;;;;;;;1.52;0.82;;;6.70;99.90;;;;;;4990795;28;20061;-85
2023/12/22 13:11:32;;;;;;;1.10;1.00;;;6.70;99.90;;;;;;5005239;28;20112;-84
2023/12/22 13:14:27;;;;;;;3.28;0.70;;;6.80;99.90;;;;;;4998431;28;20053;-85
2023/12/22 13:17:16;;;;;;;0.95;0.70;;;6.80;99.90;;;;;;4995969;28;20038;-85
2023/12/22 13:20:09;;;;;;;0.98;0.70;;;6.90;99.90;;;;;;4997116;28;20042;-85
2023/12/22 13:22:57;;;;;;;0.70;0.70;;;6.90;99.90;;;;;;4988754;28;20065;-87
2023/12/22 13:25:47;;;;;;;0.98;0.85;;;6.90;99.90;;;;;;4983935;28;20058;-84
2023/12/22 13:28:36;;;;;;;1.35;1.00;;;6.90;99.90;;;;;;4990130;28;20114;-84
2023/12/22 13:31:30;;;;;;;1.17;0.90;;;6.90;99.90;;;;;;5004829;28;20061;-85
2023/12/22 13:34:22;;;;;;;0.68;0.68;;;7.00;99.90;;;;;;4984422;28;20046;-85
2023/12/22 13:37:13;;;;;;;0.90;0.68;;;7.00;99.90;;;;;;4992728;28;20053;-85
2023/12/22 13:40:09;;;;;;;1.33;0.90;;;7.00;99.90;;;;;;4994889;28;20297;-84
2023/12/22 13:43:02;;;;;;;0.73;0.73;;;7.00;99.90;;;;;;5005896;28;20054;-81
2023/12/22 13:45:53;;;;;;;1.52;0.80;;;7.00;99.90;;;;;;4994855;28;20450;-82
2023/12/22 13:48:41;;;;;;;1.23;0.80;;;7.00;99.90;;;;;;4987917;28;20069;-85
2023/12/22 13:51:39;;;;;;;5.20;1.00;;;7.10;99.90;;;;;;4997791;28;20463;-84
2023/12/22 13:58:22;;;;;;;3.67;1.70;;;7.10;99.90;;;;;;5001291;28;20038;-83
2023/12/22 14:01:17;;;;;;;3.13;1.65;;;7.10;99.90;;;;;;4983096;28;20482;-82
2023/12/22 14:04:05;;;;;;;0.70;0.70;;;7.10;99.90;;;;;;4996275;28;20436;-85
2023/12/22 14:07:51;;;;;;;3.30;0.80;;;7.10;99.90;;;;;;5001026;28;20294;-84
2023/12/22 14:10:58;;;;;;;4.53;2.17;;;7.20;99.90;;;;;;4991268;28;20070;-85
2023/12/22 14:14:21;;;;;;;1.60;1.13;;;7.20;99.90;;;;;;4982992;28;20038;-84
2023/12/22 14:26:39;;;;;;;0.70;0.70;;;7.40;99.90;;;;;;4898018;29;20442;-83
2023/12/22 14:35:03;;;;;;;0.80;0.80;;;7.50;99.90;;;;;;4901867;29;20036;-85
2023/12/22 14:42:11;;;;;;;0.70;0.70;;;7.60;99.90;;;;;;4864560;29;20039;-82
2023/12/22 14:45:00;;;;;;;1.15;1.02;;;7.60;99.90;;;;;;4933257;28;20054;-83
2023/12/22 14:47:49;;;;;;;3.55;1.20;;;7.60;99.90;;;;;;4956024;28;20141;-83
2023/12/22 14:50:41;;;;;;;1.17;1.05;;;7.60;99.90;;;;;;4955048;28;20134;-82
2023/12/22 14:53:30;;;;;;;2.20;0.80;;;7.70;99.90;;;;;;4946728;28;20435;-83
2023/12/22 14:56:19;;;;;;;1.20;0.90;;;7.70;99.90;;;;;;4954243;28;20049;-81
2023/12/22 14:59:11;;;;;;;0.95;0.85;;;7.70;99.90;;;;;;4953006;28;20051;-82
2023/12/22 15:01:59;;;;;;;0.70;0.70;;;7.80;99.90;;;;;;4958584;28;20047;-84
2023/12/22 15:04:53;;;;;;;0.70;0.70;;;7.70;99.90;;;;;;4946771;28;20902;-81
2023/12/22 15:07:44;;;;;;;1.27;0.90;;;7.80;99.90;;;;;;4963105;28;20047;-83
2023/12/22 15:10:33;;;;;;;0.70;0.70;;;7.80;99.90;;;;;;4990732;28;20482;-83
2023/12/22 15:13:24;;;;;;;1.13;1.02;;;7.80;99.90;;;;;;4994924;28;20455;-85
2023/12/22 15:16:17;;;;;;;1.70;0.93;;;7.80;99.90;;;;;;4997596;28;20038;-85
2023/12/22 15:19:07;;;;;;;0.85;0.80;;;7.70;99.90;;;;;;4994555;28;20047;-79
2023/12/22 15:21:55;;;;;;;1.83;0.80;;;7.70;99.90;;;;;;5005759;28;20046;-81
2023/12/22 15:24:57;;;;;;;0.60;0.60;;;7.70;99.90;;;;;;5004308;28;20054;-84
2023/12/22 15:52:29;;;;;;;1.45;1.17;;;7.70;99.90;;;;;;5064738;28;20685;-84
2023/12/22 15:55:24;;;;;;;2.35;1.48;;;7.60;99.90;;;;;;5053265;28;20040;-79
2023/12/22 15:58:12;;;;;;;1.98;1.33;;;7.60;99.90;;;;;;5061172;28;20128;-83
2023/12/22 16:01:04;;;;;;;2.03;1.00;;;7.60;99.90;;;;;;5025563;28;20120;-81
2023/12/22 16:03:52;;;;;;;1.45;1.10;;;7.60;99.90;;;;;;5056285;28;20045;-85
2023/12/22 16:06:40;;;;;;;2.60;1.58;;;7.60;99.90;;;;;;5038611;28;20154;-85
2023/12/22 16:09:32;;;;;;;1.10;1.00;;;7.60;99.90;;;;;;5061361;28;20041;-85
2023/12/22 16:12:23;;;;;;;1.58;1.30;;;7.60;99.90;;;;;;5069519;28;20044;-82